Time;durP1;ratioP1;P1;durP2;ratioP2;P2;SDS_P1;SDS_P2;PMS_P1;PMS_P2;Temp;Humidity;BMP_temperature;BMP_pressure;BME280_temperature;BME280_humidity;BME280_pressure;Samples;Min_cycle;Max_cycle;Signal;HPM_P1;HPM_P2
2021/08/15 00:02:24;;;;;;;0.50;0.40;;;;;;;20.11;87.87;100368.22;4946555;28;20568;-56
2021/08/15 00:04:50;;;;;;;0.50;0.30;;;;;;;20.19;87.13;100375.81;4940223;29;20499;-56
2021/08/15 00:07:18;;;;;;;0.40;0.20;;;;;;;19.98;88.19;100363.75;4947218;28;20503;-56
2021/08/15 00:09:45;;;;;;;0.70;0.70;;;;;;;20.07;87.46;100360.44;4948781;29;20455;-56
2021/08/15 00:12:12;;;;;;;0.50;0.30;;;;;;;19.76;89.20;100370.56;4944995;28;20954;-56
2021/08/15 00:14:39;;;;;;;0.50;0.50;;;;;;;19.48;90.67;100368.75;4947692;29;20514;-56
2021/08/15 00:17:06;;;;;;;0.50;0.20;;;;;;;19.36;90.67;100363.28;4942399;29;20932;-56
2021/08/15 00:19:32;;;;;;;0.50;0.20;;;;;;;19.17;91.65;100366.25;4941015;29;20503;-56
2021/08/15 00:21:59;;;;;;;0.50;0.30;;;;;;;18.93;92.78;100360.59;4946374;28;20825;-56
2021/08/15 00:24:26;;;;;;;0.40;0.20;;;;;;;19.02;93.03;100360.00;4947507;29;20513;-56
2021/08/15 00:26:53;;;;;;;1.37;0.53;;;;;;;18.85;93.30;100361.06;4946157;29;20500;-56
2021/08/15 00:29:20;;;;;;;0.50;0.40;;;;;;;18.84;93.03;100369.22;4947812;29;20455;-56
2021/08/15 00:31:46;;;;;;;0.93;0.93;;;;;;;19.05;92.07;100362.53;4945614;29;20459;-56
2021/08/15 00:34:13;;;;;;;0.40;0.30;;;;;;;19.24;91.19;100367.63;4956288;28;20479;-56
2021/08/15 00:36:40;;;;;;;0.40;0.20;;;;;;;19.15;91.59;100358.28;4947750;29;20512;-56
2021/08/15 00:39:06;;;;;;;0.50;0.20;;;;;;;18.92;92.73;100370.50;4951214;29;20455;-56
2021/08/15 00:41:34;;;;;;;0.40;0.20;;;;;;;18.77;92.98;100355.25;4946709;29;20459;-56
2021/08/15 00:44:03;;;;;;;0.40;0.20;;;;;;;18.71;93.76;100361.03;4944472;28;21044;-56
2021/08/15 00:46:30;;;;;;;0.50;0.20;;;;;;;18.48;94.94;100362.38;4956867;28;20519;-56
2021/08/15 00:48:56;;;;;;;0.60;0.60;;;;;;;18.25;96.31;100368.28;4944484;28;20499;-56
2021/08/15 00:51:23;;;;;;;0.40;0.20;;;;;;;18.48;95.31;100364.22;4950374;29;20455;-56
2021/08/15 00:53:50;;;;;;;0.40;0.30;;;;;;;18.60;95.20;100367.03;4944184;29;20480;-56
2021/08/15 00:56:17;;;;;;;0.40;0.20;;;;;;;18.29;96.79;100359.94;4952638;28;20451;-56
2021/08/15 00:58:44;;;;;;;0.40;0.20;;;;;;;18.56;96.50;100364.63;4944140;28;20831;-56
2021/08/15 01:01:11;;;;;;;0.40;0.30;;;;;;;18.62;95.62;100357.03;4946879;29;20455;-56
2021/08/15 01:03:38;;;;;;;0.60;0.53;;;;;;;18.53;96.05;100360.31;4967857;28;20549;-56
2021/08/15 01:06:06;;;;;;;0.50;0.50;;;;;;;18.64;95.59;100352.47;4954775;28;20487;-56
2021/08/15 01:08:34;;;;;;;6.83;0.80;;;;;;;18.45;96.74;100350.94;4944221;28;20491;-56
2021/08/15 01:11:10;;;;;;;0.50;0.40;;;;;;;18.62;95.47;100337.31;4957112;28;20459;-56
2021/08/15 01:13:38;;;;;;;0.40;0.20;;;;;;;18.39;96.50;100344.13;4944176;28;20475;-56
2021/08/15 01:16:06;;;;;;;0.40;0.20;;;;;;;18.58;95.27;100343.88;4949953;29;20495;-56
2021/08/15 01:18:35;;;;;;;0.50;0.40;;;;;;;18.56;95.14;100341.25;4950226;28;20456;-56
2021/08/15 01:21:08;;;;;;;0.40;0.30;;;;;;;18.32;95.68;100329.28;4951068;29;20489;-56
2021/08/15 01:23:38;;;;;;;1.57;0.50;;;;;;;17.11;100.00;100333.50;4949197;28;20527;-56
2021/08/15 01:26:07;;;;;;;0.40;0.30;;;;;;;17.24;100.00;100330.13;4950212;29;20510;-56
2021/08/15 01:28:34;;;;;;;0.80;0.80;;;;;;;17.11;100.00;100332.63;4946314;29;20451;-56
2021/08/15 01:31:01;;;;;;;0.50;0.20;;;;;;;17.12;100.00;100331.69;4943783;28;20456;-56
2021/08/15 01:33:33;;;;;;;0.40;0.20;;;;;;;17.44;100.00;100338.84;4955071;28;20578;-56
2021/08/15 01:36:02;;;;;;;8.87;1.43;;;;;;;17.66;100.00;100341.16;4946664;29;20487;-56
2021/08/15 01:38:32;;;;;;;0.40;0.30;;;;;;;17.80;100.00;100343.09;4946526;29;20961;-56
2021/08/15 01:40:59;;;;;;;0.70;0.70;;;;;;;17.91;100.00;100337.09;4943976;28;20503;-56
2021/08/15 01:43:27;;;;;;;0.40;0.30;;;;;;;18.00;100.00;100342.81;4945567;28;21086;-56
2021/08/15 01:45:53;;;;;;;0.40;0.30;;;;;;;17.72;100.00;100340.88;4948603;29;20958;-56
2021/08/15 01:48:21;;;;;;;0.40;0.20;;;;;;;17.69;100.00;100340.19;4947913;29;20443;-56
2021/08/15 01:50:48;;;;;;;1.37;0.77;;;;;;;17.91;100.00;100339.78;4943963;28;20514;-56
2021/08/15 01:53:21;;;;;;;0.40;0.20;;;;;;;17.81;100.00;100341.28;4944073;29;20531;-56
2021/08/15 01:55:48;;;;;;;1.33;0.43;;;;;;;17.75;100.00;100334.44;4949055;29;20492;-56
2021/08/15 01:58:15;;;;;;;0.70;0.53;;;;;;;17.86;100.00;100334.69;4948785;29;21011;-56
2021/08/15 02:00:44;;;;;;;0.63;0.63;;;;;;;17.82;100.00;100338.53;4943649;28;20506;-56
2021/08/15 02:03:11;;;;;;;0.47;0.30;;;;;;;17.82;100.00;100332.25;4958858;28;20486;-56
2021/08/15 02:05:39;;;;;;;0.40;0.20;;;;;;;17.70;100.00;100339.22;4959385;28;20460;-56
2021/08/15 02:08:06;;;;;;;0.40;0.20;;;;;;;17.62;100.00;100336.06;4949464;28;20918;-56
2021/08/15 02:10:33;;;;;;;0.40;0.20;;;;;;;17.60;100.00;100336.16;4953589;29;20514;-56
2021/08/15 02:13:03;;;;;;;4.93;0.57;;;;;;;17.50;100.00;100337.63;4942744;29;20476;-56
2021/08/15 02:15:31;;;;;;;0.40;0.20;;;;;;;17.48;100.00;100339.53;4948480;28;20527;-56
2021/08/15 02:18:00;;;;;;;0.40;0.20;;;;;;;17.28;100.00;100343.34;4949805;29;20458;-56
2021/08/15 02:20:29;;;;;;;0.40;0.30;;;;;;;17.21;100.00;100341.94;4943613;29;20483;-56
2021/08/15 02:22:56;;;;;;;0.40;0.30;;;;;;;17.22;100.00;100340.09;4943119;28;20448;-56
2021/08/15 02:25:23;;;;;;;0.40;0.20;;;;;;;17.18;100.00;100342.97;4955017;29;20814;-55
2021/08/15 02:27:51;;;;;;;0.73;0.73;;;;;;;17.09;100.00;100339.91;4943042;28;20574;-56
2021/08/15 02:30:20;;;;;;;0.40;0.20;;;;;;;17.09;100.00;100339.91;4947103;28;20457;-56
2021/08/15 02:32:47;;;;;;;0.50;0.40;;;;;;;17.20;100.00;100342.88;4949335;29;20451;-56
2021/08/15 02:35:15;;;;;;;0.40;0.20;;;;;;;17.05;100.00;100339.22;4939077;29;20484;-56
2021/08/15 02:37:45;;;;;;;0.50;0.40;;;;;;;17.00;100.00;100345.81;4942577;28;20452;-56
2021/08/15 02:40:13;;;;;;;0.40;0.20;;;;;;;16.89;100.00;100338.31;4945853;28;20491;-56
2021/08/15 02:42:42;;;;;;;0.40;0.20;;;;;;;16.87;100.00;100340.22;4948857;29;20456;-56
2021/08/15 02:45:10;;;;;;;0.40;0.20;;;;;;;16.78;100.00;100340.72;4946251;29;20983;-56
2021/08/15 02:47:37;;;;;;;0.90;0.90;;;;;;;16.78;100.00;100333.53;4942510;28;20487;-55
2021/08/15 02:50:05;;;;;;;0.40;0.20;;;;;;;16.82;100.00;100324.34;4945510;28;20484;-56
2021/08/15 02:52:32;;;;;;;0.50;0.40;;;;;;;16.70;100.00;100330.38;4948550;29;20456;-56
2021/08/15 02:55:01;;;;;;;0.40;0.20;;;;;;;16.92;100.00;100323.84;4941633;29;20476;-56
2021/08/15 02:57:27;;;;;;;2.60;2.40;;;;;;;16.78;100.00;100327.28;4948853;29;20457;-56
2021/08/15 02:59:54;;;;;;;0.50;0.50;;;;;;;16.66;100.00;100323.41;4946315;29;20509;-56
2021/08/15 03:02:21;;;;;;;0.40;0.30;;;;;;;16.55;100.00;100323.09;4951541;28;20955;-55
2021/08/15 03:04:48;;;;;;;0.40;0.20;;;;;;;16.54;100.00;100324.03;4958025;28;20484;-56
2021/08/15 03:07:18;;;;;;;0.40;0.20;;;;;;;16.64;100.00;100325.31;4947967;28;20996;-55
2021/08/15 03:09:46;;;;;;;0.40;0.20;;;;;;;16.65;100.00;100320.81;4949218;29;20451;-56
2021/08/15 03:12:13;;;;;;;0.40;0.20;;;;;;;16.77;100.00;100318.38;4947344;28;20503;-56
2021/08/15 03:14:39;;;;;;;0.40;0.20;;;;;;;16.93;100.00;100315.72;4948080;29;20549;-56
2021/08/15 03:17:07;;;;;;;0.73;0.73;;;;;;;16.81;100.00;100319.06;4943596;29;20494;-55
2021/08/15 03:19:35;;;;;;;0.40;0.40;;;;;;;16.66;100.00;100320.72;4941703;28;20519;-56
2021/08/15 03:22:01;;;;;;;0.40;0.20;;;;;;;16.34;100.00;100325.09;4946721;28;20881;-55
2021/08/15 03:24:28;;;;;;;0.40;0.30;;;;;;;16.57;100.00;100313.13;4947734;29;21051;-55
2021/08/15 03:26:55;;;;;;;0.40;0.20;;;;;;;16.58;100.00;100312.19;4943861;29;20487;-56
2021/08/15 03:29:21;;;;;;;0.43;0.30;;;;;;;16.44;100.00;100320.09;4941648;29;21049;-55
2021/08/15 03:31:48;;;;;;;0.40;0.30;;;;;;;16.66;100.00;100320.72;4946352;29;20522;-56
2021/08/15 03:34:19;;;;;;;0.40;0.20;;;;;;;16.63;100.00;100320.03;4948518;29;20506;-55
2021/08/15 03:36:47;;;;;;;0.60;0.60;;;;;;;16.23;100.00;100322.09;4945905;28;20456;-56
2021/08/15 03:39:15;;;;;;;0.40;0.20;;;;;;;16.43;100.00;100318.38;4948205;29;20511;-56
2021/08/15 03:41:41;;;;;;;0.40;0.20;;;;;;;16.52;100.00;100316.06;4935307;29;20877;-55
2021/08/15 03:44:09;;;;;;;1.10;0.50;;;;;;;16.20;100.00;100317.75;4947973;29;20519;-56
2021/08/15 03:46:36;;;;;;;0.40;0.20;;;;;;;15.66;100.00;100326.75;4935518;29;20880;-56
2021/08/15 03:49:03;;;;;;;0.40;0.20;;;;;;;15.89;100.00;100315.75;4947926;29;20495;-56
2021/08/15 03:51:29;;;;;;;0.50;0.43;;;;;;;16.07;100.00;100322.00;4953259;28;20494;-56
2021/08/15 03:53:56;;;;;;;2.00;2.00;;;;;;;16.21;100.00;100330.22;4966025;28;20533;-56
2021/08/15 03:56:23;;;;;;;0.60;0.50;;;;;;;16.23;100.00;100319.41;4944313;29;20942;-56
2021/08/15 03:58:49;;;;;;;0.57;0.57;;;;;;;15.96;100.00;100317.19;4947825;29;20452;-56
2021/08/15 04:01:17;;;;;;;2.10;1.27;;;;;;;15.87;100.00;100325.69;4944795;29;20506;-56
2021/08/15 04:03:44;;;;;;;0.40;0.20;;;;;;;15.87;100.00;100323.00;4965646;28;20479;-56
2021/08/15 04:06:13;;;;;;;0.40;0.20;;;;;;;16.00;100.00;100317.88;4952980;29;20451;-56
2021/08/15 04:08:39;;;;;;;0.40;0.20;;;;;;;15.94;100.00;100319.09;4941895;29;20491;-56
2021/08/15 04:11:06;;;;;;;0.97;0.93;;;;;;;15.76;100.00;100317.34;4956761;29;20976;-55
2021/08/15 04:13:32;;;;;;;0.40;0.20;;;;;;;15.65;100.00;100315.16;4944699;28;20471;-56
2021/08/15 04:15:59;;;;;;;0.60;0.60;;;;;;;15.63;100.00;100310.84;4945750;28;20455;-57
2021/08/15 04:18:25;;;;;;;0.40;0.30;;;;;;;15.79;100.00;100313.63;4951295;29;20511;-57
2021/08/15 04:20:52;;;;;;;0.40;0.30;;;;;;;15.61;100.00;100313.56;4951081;29;20940;-56
2021/08/15 04:23:19;;;;;;;0.40;0.20;;;;;;;15.57;100.00;100311.94;4938661;29;20476;-56
2021/08/15 04:25:45;;;;;;;0.40;0.30;;;;;;;15.64;100.00;100308.06;4951378;29;20519;-56
2021/08/15 04:28:12;;;;;;;0.40;0.30;;;;;;;15.43;100.00;100303.72;4951212;28;20586;-56
2021/08/15 04:30:39;;;;;;;2.97;0.73;;;;;;;15.45;100.00;100307.19;4951276;29;20531;-56
2021/08/15 04:33:05;;;;;;;0.50;0.40;;;;;;;15.49;100.00;100306.13;4944815;29;20554;-56
2021/08/15 04:35:32;;;;;;;0.40;0.20;;;;;;;15.51;100.00;100308.72;4953094;29;20459;-56
2021/08/15 04:37:58;;;;;;;0.63;0.63;;;;;;;15.56;100.00;100302.19;4942907;29;20487;-56
2021/08/15 04:40:25;;;;;;;0.40;0.20;;;;;;;15.82;100.00;100295.56;4953909;29;20467;-56
2021/08/15 04:42:52;;;;;;;0.40;0.20;;;;;;;15.69;100.00;100299.81;4945819;29;20940;-58
2021/08/15 04:45:18;;;;;;;0.40;0.30;;;;;;;15.65;100.00;100296.41;4954497;23;20512;-81
2021/08/15 04:47:45;;;;;;;0.60;0.60;;;;;;;15.65;100.00;100285.69;4961228;28;20514;-82
2021/08/15 04:50:11;;;;;;;0.40;0.30;;;;;;;15.53;100.00;100290.75;4967541;28;20479;-82
2021/08/15 04:52:38;;;;;;;0.50;0.40;;;;;;;15.67;100.00;100291.84;4943395;29;20464;-82
2021/08/15 04:55:05;;;;;;;0.40;0.20;;;;;;;15.80;100.00;100288.56;4953805;29;20499;-80
2021/08/15 04:57:32;;;;;;;0.40;0.30;;;;;;;15.79;100.00;100284.13;4957687;28;20519;-82
2021/08/15 04:59:58;;;;;;;0.40;0.20;;;;;;;15.77;100.00;100286.91;4959270;28;20537;-82
2021/08/15 05:02:25;;;;;;;0.40;0.20;;;;;;;15.84;100.00;100288.31;4951742;29;20452;-82
2021/08/15 05:04:52;;;;;;;0.50;0.50;;;;;;;16.00;100.00;100286.59;4949678;29;20471;-81
2021/08/15 05:07:18;;;;;;;0.67;0.67;;;;;;;16.83;100.00;100295.69;4953961;29;20491;-82
2021/08/15 05:09:45;;;;;;;0.67;0.67;;;;;;;17.61;98.85;100299.38;4941471;29;20832;-81
2021/08/15 05:12:12;;;;;;;0.40;0.20;;;;;;;18.28;96.44;100296.31;4949317;29;20841;-81
2021/08/15 05:14:38;;;;;;;0.40;0.20;;;;;;;18.78;93.79;100292.38;4940373;29;20464;-81
2021/08/15 05:17:06;;;;;;;2.30;0.93;;;;;;;18.98;92.09;100298.34;4947764;29;20449;-81
2021/08/15 05:19:33;;;;;;;0.90;0.90;;;;;;;19.46;89.98;100297.00;4937792;29;20871;-80
2021/08/15 05:21:59;;;;;;;0.40;0.20;;;;;;;19.52;89.78;100297.47;4942839;28;20507;-80
2021/08/15 05:24:26;;;;;;;0.50;0.50;;;;;;;19.71;89.06;100299.84;4940510;29;20523;-80
2021/08/15 05:26:53;;;;;;;0.40;0.20;;;;;;;20.27;86.86;100305.94;4941722;28;20463;-81
2021/08/15 05:29:19;;;;;;;0.60;0.60;;;;;;;20.40;85.85;100306.84;4945109;29;20862;-81
2021/08/15 05:31:46;;;;;;;0.50;0.20;;;;;;;20.48;85.00;100303.66;4942062;29;20510;-81
2021/08/15 05:34:13;;;;;;;0.40;0.30;;;;;;;20.62;84.06;100291.88;4938060;29;20540;-80
2021/08/15 05:36:39;;;;;;;0.40;0.30;;;;;;;20.75;83.74;100308.97;4949060;29;20490;-81
2021/08/15 05:39:06;;;;;;;0.57;0.50;;;;;;;20.49;84.62;100291.00;4938085;29;20492;-81
2021/08/15 05:41:32;;;;;;;0.80;0.60;;;;;;;20.66;84.99;100299.66;4941572;28;20476;-81
2021/08/15 05:43:59;;;;;;;0.50;0.30;;;;;;;20.55;85.84;100295.97;4942748;29;20471;-81
2021/08/15 05:46:26;;;;;;;0.40;0.20;;;;;;;20.98;84.75;100294.69;4941725;28;20460;-81
2021/08/15 05:48:52;;;;;;;0.40;0.20;;;;;;;21.06;85.79;100295.97;4942044;29;20500;-81
2021/08/15 05:51:19;;;;;;;0.50;0.40;;;;;;;21.46;84.52;100299.38;4941302;29;20535;-83
2021/08/15 05:53:46;;;;;;;0.87;0.87;;;;;;;21.26;84.91;100295.44;4947344;29;20460;-82
2021/08/15 05:56:13;;;;;;;12.00;1.83;;;;;;;21.16;85.52;100297.03;4943260;29;20465;-82
2021/08/15 05:58:39;;;;;;;1.03;1.03;;;;;;;21.37;84.89;100295.50;4939576;29;20517;-82
2021/08/15 06:01:07;;;;;;;0.40;0.30;;;;;;;20.89;86.01;100286.38;4943539;29;20476;-81
2021/08/15 06:03:34;;;;;;;1.13;1.13;;;;;;;20.96;87.00;100295.75;4940034;29;20459;-81
2021/08/15 06:06:02;;;;;;;0.50;0.30;;;;;;;20.79;87.85;100294.25;4940360;29;20515;-82
2021/08/15 06:08:29;;;;;;;0.40;0.30;;;;;;;21.15;86.01;100289.91;4939391;29;20590;-82
2021/08/15 06:10:55;;;;;;;0.40;0.30;;;;;;;21.12;85.80;100288.28;4949002;29;20526;-83
2021/08/15 06:13:22;;;;;;;0.50;0.43;;;;;;;21.26;85.96;100284.63;4935890;28;20459;-83
2021/08/15 06:15:49;;;;;;;5.77;1.90;;;;;;;20.97;86.59;100289.41;4938225;29;20594;-83
2021/08/15 06:18:18;;;;;;;1.70;1.50;;;;;;;20.75;87.24;100287.34;4954181;29;20462;-83
2021/08/15 06:20:44;;;;;;;0.40;0.20;;;;;;;20.71;87.10;100280.44;4958295;28;20471;-83
2021/08/15 06:23:11;;;;;;;0.50;0.47;;;;;;;20.90;87.11;100270.03;4956686;29;20502;-83
2021/08/15 06:25:38;;;;;;;0.43;0.23;;;;;;;20.49;88.51;100283.78;4958606;28;20957;-83
2021/08/15 06:28:04;;;;;;;0.40;0.30;;;;;;;20.87;87.98;100285.63;4956713;28;20498;-83
2021/08/15 06:30:31;;;;;;;0.40;0.30;;;;;;;20.56;88.51;100276.09;4957952;28;20503;-83
2021/08/15 06:33:01;;;;;;;0.40;0.30;;;;;;;20.96;87.35;100282.25;4956801;29;20455;-83
2021/08/15 06:35:28;;;;;;;0.40;0.23;;;;;;;20.73;88.06;100277.63;4957911;29;20463;-83
2021/08/15 06:37:55;;;;;;;0.50;0.40;;;;;;;20.66;89.77;100288.00;4958406;28;20447;-83
2021/08/15 06:40:24;;;;;;;0.77;0.77;;;;;;;20.67;88.16;100278.91;4957155;28;20479;-83
2021/08/15 06:42:52;;;;;;;0.43;0.30;;;;;;;20.58;89.89;100276.88;4957620;29;20451;-83
2021/08/15 06:45:19;;;;;;;4.67;0.77;;;;;;;20.57;89.81;100267.91;4944493;29;20476;-83
2021/08/15 06:47:46;;;;;;;0.47;0.37;;;;;;;20.93;89.35;100271.66;4955930;29;20483;-83
2021/08/15 06:50:13;;;;;;;0.40;0.20;;;;;;;20.80;88.37;100255.44;4957799;28;20526;-83
2021/08/15 06:52:40;;;;;;;1.23;1.00;;;;;;;20.81;88.80;100265.28;4958418;28;20459;-83
2021/08/15 06:55:07;;;;;;;1.33;1.17;;;;;;;20.97;87.57;100276.75;4957824;28;20880;-83
2021/08/15 06:57:34;;;;;;;0.40;0.30;;;;;;;21.20;88.13;100266.09;4951123;29;20449;-83
2021/08/15 07:00:02;;;;;;;0.40;0.20;;;;;;;20.93;88.86;100252.75;4949788;28;20546;-83
2021/08/15 07:02:28;;;;;;;0.50;0.40;;;;;;;20.97;87.43;100248.88;4947043;29;20460;-83
2021/08/15 07:04:55;;;;;;;0.50;0.30;;;;;;;21.21;88.07;100262.41;4950969;29;20518;-82
2021/08/15 07:07:22;;;;;;;0.40;0.20;;;;;;;21.17;87.51;100258.22;4945470;29;20865;-83
2021/08/15 07:09:49;;;;;;;0.50;0.30;;;;;;;21.40;87.85;100260.13;4946607;29;20507;-83
2021/08/15 07:12:15;;;;;;;0.67;0.67;;;;;;;21.21;87.62;100255.16;4957846;29;20455;-83
2021/08/15 07:14:42;;;;;;;0.40;0.20;;;;;;;21.35;87.57;100254.19;4941185;28;20463;-83
2021/08/15 07:17:09;;;;;;;0.50;0.30;;;;;;;21.32;86.65;100261.66;4952290;28;20459;-83
2021/08/15 07:19:35;;;;;;;0.50;0.40;;;;;;;21.83;84.92;100259.63;4936140;29;20461;-82
2021/08/15 07:22:02;;;;;;;0.87;0.87;;;;;;;21.65;86.38;100261.84;4930613;29;20476;-83
2021/08/15 07:24:30;;;;;;;1.17;1.17;;;;;;;21.66;85.84;100249.22;4936429;29;20465;-83
2021/08/15 07:26:57;;;;;;;0.50;0.47;;;;;;;21.89;86.15;100251.00;4926358;29;20942;-83
2021/08/15 07:29:24;;;;;;;0.63;0.63;;;;;;;21.79;84.29;100244.56;4940487;29;20488;-83
2021/08/15 07:31:52;;;;;;;0.50;0.30;;;;;;;22.18;81.83;100244.25;4946469;28;20545;-82
2021/08/15 07:34:19;;;;;;;0.77;0.77;;;;;;;22.22;83.50;100254.88;4936555;29;20493;-83
2021/08/15 07:36:46;;;;;;;0.40;0.20;;;;;;;22.04;82.67;100254.41;4939953;29;20469;-82
2021/08/15 07:39:13;;;;;;;0.40;0.20;;;;;;;22.20;82.74;100243.28;4940209;29;20456;-83
2021/08/15 07:41:40;;;;;;;0.40;0.20;;;;;;;22.58;80.18;100237.56;4939828;28;20476;-82
2021/08/15 07:44:07;;;;;;;0.67;0.67;;;;;;;22.58;79.23;100242.97;4936374;29;20468;-80
2021/08/15 07:46:34;;;;;;;1.20;0.50;;;;;;;22.57;80.53;100249.38;4936209;29;20973;-82
2021/08/15 07:49:01;;;;;;;0.40;0.20;;;;;;;22.95;77.19;100244.50;4940167;29;20495;-81
2021/08/15 07:51:29;;;;;;;0.47;0.27;;;;;;;23.11;77.31;100241.41;4936863;29;20489;-82
2021/08/15 07:53:58;;;;;;;0.50;0.20;;;;;;;23.26;76.57;100237.44;4936642;29;20512;-81
2021/08/15 07:56:25;;;;;;;0.50;0.30;;;;;;;23.15;78.60;100240.16;4939088;29;20460;-81
2021/08/15 07:58:52;;;;;;;1.17;1.07;;;;;;;23.19;78.65;100235.38;4951075;29;20900;-80
2021/08/15 08:01:18;;;;;;;0.73;0.73;;;;;;;23.17;77.46;100242.78;4942965;28;20500;-82
2021/08/15 08:03:45;;;;;;;0.50;0.30;;;;;;;23.80;76.52;100238.44;4937075;29;20850;-82
2021/08/15 08:06:12;;;;;;;0.50;0.50;;;;;;;23.78;75.55;100230.41;4938498;29;20464;-84
2021/08/15 08:08:39;;;;;;;0.50;0.30;;;;;;;23.80;75.20;100222.16;4946151;29;20515;-84
2021/08/15 08:11:06;;;;;;;2.00;0.93;;;;;;;24.06;73.69;100228.06;4929584;28;20468;-82
2021/08/15 08:13:33;;;;;;;0.50;0.50;;;;;;;24.04;74.22;100221.91;4934076;29;20439;-83
2021/08/15 08:15:59;;;;;;;0.50;0.40;;;;;;;24.20;73.97;100214.16;4935593;29;20486;-82
2021/08/15 08:18:26;;;;;;;0.67;0.67;;;;;;;24.54;73.61;100216.69;4933588;29;20448;-82
2021/08/15 08:20:53;;;;;;;0.97;0.97;;;;;;;25.01;73.16;100215.22;4947770;28;20483;-83
2021/08/15 08:23:19;;;;;;;0.60;0.50;;;;;;;25.40;72.72;100214.31;4948422;28;20476;-83
2021/08/15 08:25:47;;;;;;;0.93;0.93;;;;;;;25.18;73.18;100209.09;4940080;29;20448;-83
2021/08/15 08:28:14;;;;;;;0.50;0.40;;;;;;;24.76;75.04;100213.78;4944608;29;20491;-81
2021/08/15 08:30:42;;;;;;;6.33;1.73;;;;;;;24.61;74.40;100204.28;4936875;29;20859;-82
2021/08/15 08:33:08;;;;;;;0.50;0.30;;;;;;;24.97;74.46;100201.00;4940848;28;20502;-82
2021/08/15 08:35:35;;;;;;;0.50;0.30;;;;;;;24.95;74.00;100207.59;4949487;29;20969;-82
2021/08/15 08:38:02;;;;;;;2.50;0.90;;;;;;;24.71;75.40;100205.19;4954754;28;20502;-82
2021/08/15 08:40:29;;;;;;;0.60;0.60;;;;;;;24.27;76.51;100195.50;4954359;28;20966;-82
2021/08/15 08:42:56;;;;;;;0.50;0.20;;;;;;;24.63;76.18;100203.13;4955244;29;20510;-82
2021/08/15 08:45:24;;;;;;;0.60;0.53;;;;;;;24.87;75.33;100197.38;4954260;29;20478;-81
2021/08/15 08:47:52;;;;;;;0.47;0.30;;;;;;;25.04;74.62;100191.31;4948245;29;20456;-81
2021/08/15 08:50:20;;;;;;;0.50;0.30;;;;;;;25.12;74.83;100195.19;4948963;28;20483;-82
2021/08/15 08:52:47;;;;;;;0.50;0.30;;;;;;;25.16;73.81;100192.06;4957904;28;20463;-82
2021/08/15 08:55:16;;;;;;;0.70;0.70;;;;;;;25.63;72.45;100200.41;4956774;29;20607;-81
2021/08/15 08:57:45;;;;;;;0.50;0.50;;;;;;;25.49;72.73;100190.81;4947255;29;20422;-82
2021/08/15 09:00:12;;;;;;;0.50;0.30;;;;;;;25.44;72.03;100193.09;4957390;28;20518;-82
2021/08/15 09:02:39;;;;;;;0.50;0.40;;;;;;;25.60;71.64;100187.94;4947180;29;20456;-81
2021/08/15 09:05:07;;;;;;;0.40;0.30;;;;;;;25.52;70.86;100185.09;4955847;29;20476;-81
2021/08/15 09:07:35;;;;;;;2.37;1.30;;;;;;;25.53;71.09;100185.97;4956938;29;20442;-81
2021/08/15 09:10:05;;;;;;;0.50;0.30;;;;;;;25.50;70.73;100188.97;4947663;29;20860;-82
2021/08/15 09:12:44;;;;;;;0.43;0.30;;;;;;;25.90;71.54;100192.41;4956942;29;20426;-82
2021/08/15 09:15:15;;;;;;;0.50;0.47;;;;;;;25.91;69.89;100183.28;4957613;29;20440;-82
2021/08/15 09:17:44;;;;;;;2.73;0.83;;;;;;;25.82;67.81;100172.38;4957919;28;20457;-81
2021/08/15 09:20:14;;;;;;;0.90;0.70;;;;;;;25.98;68.65;100173.50;4958089;28;20534;-82
2021/08/15 09:22:40;;;;;;;0.50;0.30;;;;;;;25.85;69.41;100158.47;4957292;28;20459;-82
2021/08/15 09:25:14;;;;;;;0.50;0.30;;;;;;;26.05;65.72;100165.63;4957500;28;20448;-81
2021/08/15 09:27:56;;;;;;;2.83;0.97;;;;;;;26.61;65.12;100163.91;4957486;28;20477;-81
2021/08/15 09:30:31;;;;;;;0.60;0.57;;;;;;;26.65;63.82;100165.31;4956168;28;20450;-82
2021/08/15 09:33:08;;;;;;;0.50;0.30;;;;;;;26.18;64.10;100168.91;4956566;29;20474;-81
2021/08/15 09:35:35;;;;;;;0.50;0.30;;;;;;;26.33;62.60;100176.59;4957938;28;20810;-80
2021/08/15 09:38:01;;;;;;;0.50;0.30;;;;;;;26.35;62.70;100178.16;4956578;29;20468;-82
2021/08/15 09:40:33;;;;;;;0.50;0.30;;;;;;;26.52;63.41;100169.25;4958507;28;20976;-81
2021/08/15 09:43:01;;;;;;;0.50;0.40;;;;;;;26.68;62.53;100160.41;4936286;29;20433;-82
2021/08/15 09:45:42;;;;;;;16.27;0.60;;;;;;;26.33;61.25;100160.25;4958256;28;20522;-82
2021/08/15 09:48:14;;;;;;;0.43;0.30;;;;;;;26.50;60.67;100148.59;4958620;29;20459;-82
2021/08/15 09:50:41;;;;;;;0.40;0.30;;;;;;;26.55;60.37;100149.00;4957975;28;20475;-82
2021/08/15 09:53:24;;;;;;;0.50;0.30;;;;;;;27.03;59.77;100158.84;4957635;28;20522;-82
2021/08/15 09:55:51;;;;;;;0.50;0.30;;;;;;;26.91;59.02;100157.31;4956559;29;20793;-82
2021/08/15 09:58:18;;;;;;;0.60;0.60;;;;;;;26.49;59.59;100150.47;4956831;29;20791;-82
2021/08/15 10:00:45;;;;;;;0.40;0.30;;;;;;;26.97;60.39;100146.63;4958092;28;20449;-83
2021/08/15 10:03:12;;;;;;;0.63;0.63;;;;;;;26.35;60.32;100144.59;4941515;29;20997;-82
2021/08/15 10:05:39;;;;;;;0.70;0.70;;;;;;;26.56;60.03;100140.66;4956710;29;20551;-82
2021/08/15 10:08:06;;;;;;;1.17;0.80;;;;;;;26.77;60.03;100134.97;4957075;29;20437;-82
2021/08/15 10:10:35;;;;;;;0.40;0.30;;;;;;;26.93;59.37;100136.19;4947269;29;20441;-83
2021/08/15 10:13:03;;;;;;;0.80;0.77;;;;;;;27.22;59.12;100141.47;4957161;29;20494;-82
2021/08/15 10:15:31;;;;;;;0.50;0.30;;;;;;;27.50;58.35;100139.53;4958919;29;20425;-82
2021/08/15 10:17:59;;;;;;;0.90;0.90;;;;;;;27.21;59.22;100126.13;4957930;29;20455;-83
2021/08/15 10:20:29;;;;;;;0.40;0.30;;;;;;;27.51;58.08;100123.00;4957147;28;20447;-82
2021/08/15 10:23:07;;;;;;;0.50;0.43;;;;;;;26.95;57.72;100128.69;4957631;28;20437;-82
2021/08/15 10:25:41;;;;;;;0.50;0.30;;;;;;;27.71;57.06;100115.53;4956673;29;20510;-83
2021/08/15 10:28:09;;;;;;;0.50;0.30;;;;;;;27.70;55.24;100119.28;4958001;29;20418;-83
2021/08/15 10:30:36;;;;;;;0.60;0.40;;;;;;;27.62;53.17;100116.44;4967941;28;20499;-83
2021/08/15 10:33:03;;;;;;;0.50;0.47;;;;;;;27.84;53.87;100117.88;4958543;28;20440;-82
2021/08/15 10:35:33;;;;;;;3.47;0.83;;;;;;;27.88;53.56;100119.25;4956906;29;20500;-83
2021/08/15 10:38:06;;;;;;;0.93;0.93;;;;;;;27.75;53.41;100114.19;4956383;29;20434;-82
2021/08/15 10:40:39;;;;;;;0.50;0.30;;;;;;;27.94;52.53;100110.41;4955297;28;20471;-82
2021/08/15 10:43:13;;;;;;;0.77;0.70;;;;;;;28.24;51.94;100106.34;4926115;29;21021;-82
2021/08/15 10:45:41;;;;;;;0.50;0.40;;;;;;;27.87;51.70;100096.53;4948307;29;20450;-82
2021/08/15 10:48:08;;;;;;;0.60;0.50;;;;;;;27.58;52.02;100093.19;4957341;29;20509;-83
2021/08/15 10:50:46;;;;;;;0.63;0.50;;;;;;;27.19;52.60;100096.25;4959313;28;20540;-83
2021/08/15 10:53:28;;;;;;;0.50;0.50;;;;;;;27.52;53.40;100085.63;4959321;28;20437;-83
2021/08/15 10:56:04;;;;;;;0.43;0.30;;;;;;;27.38;53.52;100087.88;4959316;29;20430;-82
2021/08/15 10:58:44;;;;;;;0.60;0.53;;;;;;;27.30;52.20;100086.97;4958807;29;20489;-83
2021/08/15 11:01:15;;;;;;;0.50;0.30;;;;;;;27.36;51.43;100078.16;4958863;28;20570;-83
2021/08/15 11:03:48;;;;;;;2.67;0.57;;;;;;;27.56;50.69;100076.13;4945393;28;20448;-82
2021/08/15 11:06:30;;;;;;;0.50;0.30;;;;;;;27.71;50.70;100077.28;4946126;29;20463;-83
2021/08/15 11:09:05;;;;;;;0.50;0.40;;;;;;;27.75;51.90;100073.22;4930032;29;20500;-82
2021/08/15 11:11:37;;;;;;;0.50;0.40;;;;;;;27.98;50.89;100070.81;4955757;29;20526;-81
2021/08/15 11:14:19;;;;;;;2.10;0.50;;;;;;;28.23;50.31;100063.59;4958416;29;20458;-81
2021/08/15 11:16:53;;;;;;;2.17;0.60;;;;;;;28.30;50.10;100064.72;4957245;29;20474;-81
2021/08/15 11:19:20;;;;;;;2.53;1.37;;;;;;;28.40;50.11;100050.91;4958312;29;20429;-81
2021/08/15 11:22:14;;;;;;;1.17;0.57;;;;;;;28.32;49.03;100046.25;4959337;28;20487;-81
2021/08/15 11:24:43;;;;;;;0.40;0.30;;;;;;;28.47;49.18;100041.00;4959578;28;20414;-81
2021/08/15 11:27:19;;;;;;;0.50;0.30;;;;;;;28.36;48.87;100036.69;4958582;29;20580;-81